sensor_id;sensor_type;location;lat;lon;timestamp;temperature;humidity
1680;DHT22;838;51.794;12.258;2023-02-28T00:00:46;4.10;1.00
1680;DHT22;838;51.794;12.258;2023-02-28T00:03:11;4.20;1.00
1680;DHT22;838;51.794;12.258;2023-02-28T00:05:37;4.30;1.00
1680;DHT22;838;51.794;12.258;2023-02-28T00:08:03;4.40;1.00
1680;DHT22;838;51.794;12.258;2023-02-28T00:10:30;4.40;1.00
1680;DHT22;838;51.794;12.258;2023-02-28T00:13:00;4.50;1.00
1680;DHT22;838;51.794;12.258;2023-02-28T00:15:26;4.60;1.00
1680;DHT22;838;51.794;12.258;2023-02-28T00:17:52;4.60;1.00
1680;DHT22;838;51.794;12.258;2023-02-28T00:20:18;4.60;1.00
1680;DHT22;838;51.794;12.258;2023-02-28T00:22:47;4.60;1.00
1680;DHT22;838;51.794;12.258;2023-02-28T00:25:16;4.50;1.00
1680;DHT22;838;51.794;12.258;2023-02-28T00:27:42;4.20;1.00
1680;DHT22;838;51.794;12.258;2023-02-28T00:30:13;3.80;1.00
1680;DHT22;838;51.794;12.258;2023-02-28T00:32:39;3.50;1.00
1680;DHT22;838;51.794;12.258;2023-02-28T00:35:06;3.30;1.00
1680;DHT22;838;51.794;12.258;2023-02-28T00:37:32;3.10;1.00
1680;DHT22;838;51.794;12.258;2023-02-28T00:39:58;3.00;1.00
1680;DHT22;838;51.794;12.258;2023-02-28T00:42:24;3.10;1.00
1680;DHT22;838;51.794;12.258;2023-02-28T00:44:50;3.10;1.00
1680;DHT22;838;51.794;12.258;2023-02-28T00:47:16;3.50;1.00
1680;DHT22;838;51.794;12.258;2023-02-28T00:49:41;3.70;1.00
1680;DHT22;838;51.794;12.258;2023-02-28T00:52:07;4.00;1.00
1680;DHT22;838;51.794;12.258;2023-02-28T00:54:33;4.20;1.00
1680;DHT22;838;51.794;12.258;2023-02-28T00:56:59;4.30;1.00
1680;DHT22;838;51.794;12.258;2023-02-28T00:59:25;4.10;1.00
1680;DHT22;838;51.794;12.258;2023-02-28T01:01:51;4.00;1.00
1680;DHT22;838;51.794;12.258;2023-02-28T01:04:17;4.10;1.00
1680;DHT22;838;51.794;12.258;2023-02-28T01:06:42;4.20;1.00
1680;DHT22;838;51.794;12.258;2023-02-28T01:09:09;3.90;1.00
1680;DHT22;838;51.794;12.258;2023-02-28T01:11:34;3.90;1.00
1680;DHT22;838;51.794;12.258;2023-02-28T01:14:01;4.10;1.00
1680;DHT22;838;51.794;12.258;2023-02-28T01:16:27;4.30;1.00
1680;DHT22;838;51.794;12.258;2023-02-28T01:18:53;4.40;1.00
1680;DHT22;838;51.794;12.258;2023-02-28T01:21:20;4.30;1.00
1680;DHT22;838;51.794;12.258;2023-02-28T01:23:46;4.30;1.00
1680;DHT22;838;51.794;12.258;2023-02-28T01:26:15;4.30;1.00
1680;DHT22;838;51.794;12.258;2023-02-28T01:28:41;4.30;1.00
1680;DHT22;838;51.794;12.258;2023-02-28T01:31:08;4.30;1.00
1680;DHT22;838;51.794;12.258;2023-02-28T01:33:35;4.30;1.00
1680;DHT22;838;51.794;12.258;2023-02-28T01:36:03;4.20;1.00
1680;DHT22;838;51.794;12.258;2023-02-28T01:38:29;4.10;1.00
1680;DHT22;838;51.794;12.258;2023-02-28T01:40:55;4.00;1.00
1680;DHT22;838;51.794;12.258;2023-02-28T01:46:17;3.90;1.00
1680;DHT22;838;51.794;12.258;2023-02-28T01:48:56;3.90;1.00
1680;DHT22;838;51.794;12.258;2023-02-28T01:54:03;4.10;1.00
1680;DHT22;838;51.794;12.258;2023-02-28T01:56:33;4.00;1.00
1680;DHT22;838;51.794;12.258;2023-02-28T01:59:00;3.90;1.00
1680;DHT22;838;51.794;12.258;2023-02-28T02:01:27;4.10;1.00
1680;DHT22;838;51.794;12.258;2023-02-28T02:03:59;4.20;1.00
1680;DHT22;838;51.794;12.258;2023-02-28T02:06:29;4.30;1.00
1680;DHT22;838;51.794;12.258;2023-02-28T02:08:55;4.30;1.00
1680;DHT22;838;51.794;12.258;2023-02-28T02:11:23;4.40;1.00
1680;DHT22;838;51.794;12.258;2023-02-28T02:17:14;4.40;1.00
1680;DHT22;838;51.794;12.258;2023-02-28T02:22:37;4.40;1.00
1680;DHT22;838;51.794;12.258;2023-02-28T02:25:23;4.30;1.00
1680;DHT22;838;51.794;12.258;2023-02-28T02:36:23;4.00;1.00
1680;DHT22;838;51.794;12.258;2023-02-28T02:39:00;4.00;1.00
1680;DHT22;838;51.794;12.258;2023-02-28T02:41:36;4.00;1.00
1680;DHT22;838;51.794;12.258;2023-02-28T02:44:24;3.90;1.00
1680;DHT22;838;51.794;12.258;2023-02-28T02:46:58;2.90;1.00
1680;DHT22;838;51.794;12.258;2023-02-28T02:49:30;2.70;2.80
1680;DHT22;838;51.794;12.258;2023-02-28T02:52:01;3.10;1.20
1680;DHT22;838;51.794;12.258;2023-02-28T02:54:30;3.20;1.00
1680;DHT22;838;51.794;12.258;2023-02-28T02:57:00;3.30;1.00
1680;DHT22;838;51.794;12.258;2023-02-28T02:59:28;3.40;1.00
1680;DHT22;838;51.794;12.258;2023-02-28T03:01:57;3.30;1.00
1680;DHT22;838;51.794;12.258;2023-02-28T03:04:25;3.50;1.00
1680;DHT22;838;51.794;12.258;2023-02-28T03:06:53;3.40;1.00
1680;DHT22;838;51.794;12.258;2023-02-28T03:09:23;3.50;1.00
1680;DHT22;838;51.794;12.258;2023-02-28T03:11:49;3.50;1.00
1680;DHT22;838;51.794;12.258;2023-02-28T03:23:16;3.20;1.00
1680;DHT22;838;51.794;12.258;2023-02-28T03:25:54;3.10;1.00
1680;DHT22;838;51.794;12.258;2023-02-28T03:34:01;3.20;1.00
1680;DHT22;838;51.794;12.258;2023-02-28T03:36:50;3.10;1.00
1680;DHT22;838;51.794;12.258;2023-02-28T03:39:22;3.00;1.00
1680;DHT22;838;51.794;12.258;2023-02-28T03:42:05;3.10;1.00
1680;DHT22;838;51.794;12.258;2023-02-28T03:44:38;3.00;1.00
1680;DHT22;838;51.794;12.258;2023-02-28T03:47:17;3.00;1.00
1680;DHT22;838;51.794;12.258;2023-02-28T03:49:49;3.00;1.00
1680;DHT22;838;51.794;12.258;2023-02-28T03:52:17;2.80;1.00
1680;DHT22;838;51.794;12.258;2023-02-28T03:54:46;2.80;1.00
1680;DHT22;838;51.794;12.258;2023-02-28T03:57:37;2.80;1.00
1680;DHT22;838;51.794;12.258;2023-02-28T04:00:12;2.60;1.00
1680;DHT22;838;51.794;12.258;2023-02-28T04:02:40;2.50;1.00
1680;DHT22;838;51.794;12.258;2023-02-28T04:05:06;2.30;1.30
1680;DHT22;838;51.794;12.258;2023-02-28T04:07:32;2.10;2.20
1680;DHT22;838;51.794;12.258;2023-02-28T04:09:58;2.00;2.40
1680;DHT22;838;51.794;12.258;2023-02-28T04:12:24;2.10;2.00
1680;DHT22;838;51.794;12.258;2023-02-28T04:14:50;1.60;3.10
1680;DHT22;838;51.794;12.258;2023-02-28T04:17:16;1.10;6.20
1680;DHT22;838;51.794;12.258;2023-02-28T04:19:42;1.20;7.40
1680;DHT22;838;51.794;12.258;2023-02-28T04:22:09;1.50;6.00
1680;DHT22;838;51.794;12.258;2023-02-28T04:24:35;1.70;4.90
1680;DHT22;838;51.794;12.258;2023-02-28T04:27:01;1.80;4.00
1680;DHT22;838;51.794;12.258;2023-02-28T04:29:31;1.80;3.50
1680;DHT22;838;51.794;12.258;2023-02-28T04:31:58;1.80;3.50
1680;DHT22;838;51.794;12.258;2023-02-28T04:34:29;1.80;3.50
1680;DHT22;838;51.794;12.258;2023-02-28T04:36:55;1.90;3.10
1680;DHT22;838;51.794;12.258;2023-02-28T04:39:22;1.90;2.70
1680;DHT22;838;51.794;12.258;2023-02-28T04:41:48;1.50;3.30
1680;DHT22;838;51.794;12.258;2023-02-28T04:44:14;1.50;3.90
1680;DHT22;838;51.794;12.258;2023-02-28T04:46:42;1.40;3.70
1680;DHT22;838;51.794;12.258;2023-02-28T04:49:09;1.40;3.90
1680;DHT22;838;51.794;12.258;2023-02-28T04:51:36;1.50;4.10
1680;DHT22;838;51.794;12.258;2023-02-28T04:54:01;1.20;4.90
1680;DHT22;838;51.794;12.258;2023-02-28T04:56:27;1.20;4.70
1680;DHT22;838;51.794;12.258;2023-02-28T04:58:53;1.10;3.90
1680;DHT22;838;51.794;12.258;2023-02-28T05:01:26;1.00;4.70
1680;DHT22;838;51.794;12.258;2023-02-28T05:03:54;1.00;5.10
1680;DHT22;838;51.794;12.258;2023-02-28T05:06:21;0.90;5.30
1680;DHT22;838;51.794;12.258;2023-02-28T05:08:47;0.90;5.30
1680;DHT22;838;51.794;12.258;2023-02-28T05:13:51;0.90;5.00
1680;DHT22;838;51.794;12.258;2023-02-28T05:16:17;1.00;5.10
1680;DHT22;838;51.794;12.258;2023-02-28T05:18:43;0.90;5.00
1680;DHT22;838;51.794;12.258;2023-02-28T05:21:32;0.80;5.30
1680;DHT22;838;51.794;12.258;2023-02-28T05:24:06;0.90;5.20
1680;DHT22;838;51.794;12.258;2023-02-28T05:26:39;0.90;4.90
1680;DHT22;838;51.794;12.258;2023-02-28T05:29:05;0.90;4.80
1680;DHT22;838;51.794;12.258;2023-02-28T05:31:31;0.90;4.60
1680;DHT22;838;51.794;12.258;2023-02-28T05:33:57;1.00;4.60
1680;DHT22;838;51.794;12.258;2023-02-28T05:36:23;0.80;4.30
1680;DHT22;838;51.794;12.258;2023-02-28T05:38:49;0.70;5.20
1680;DHT22;838;51.794;12.258;2023-02-28T05:41:16;0.70;5.20
1680;DHT22;838;51.794;12.258;2023-02-28T05:43:42;0.60;5.40
1680;DHT22;838;51.794;12.258;2023-02-28T05:46:10;0.60;5.30
1680;DHT22;838;51.794;12.258;2023-02-28T05:48:37;0.60;5.60
1680;DHT22;838;51.794;12.258;2023-02-28T05:51:04;0.60;5.30
1680;DHT22;838;51.794;12.258;2023-02-28T05:53:31;0.70;5.60
1680;DHT22;838;51.794;12.258;2023-02-28T05:55:57;0.70;5.40
1680;DHT22;838;51.794;12.258;2023-02-28T05:58:23;0.70;5.20
1680;DHT22;838;51.794;12.258;2023-02-28T06:00:51;0.50;5.50
1680;DHT22;838;51.794;12.258;2023-02-28T06:03:16;0.50;5.70
1680;DHT22;838;51.794;12.258;2023-02-28T06:05:42;0.40;6.10
1680;DHT22;838;51.794;12.258;2023-02-28T06:08:08;0.40;5.90
1680;DHT22;838;51.794;12.258;2023-02-28T06:10:37;0.40;5.90
1680;DHT22;838;51.794;12.258;2023-02-28T06:13:03;0.40;6.10
1680;DHT22;838;51.794;12.258;2023-02-28T06:15:30;0.50;6.00
1680;DHT22;838;51.794;12.258;2023-02-28T06:17:56;0.50;6.40
1680;DHT22;838;51.794;12.258;2023-02-28T06:20:23;0.60;6.20
1680;DHT22;838;51.794;12.258;2023-02-28T06:22:49;0.50;6.90
1680;DHT22;838;51.794;12.258;2023-02-28T06:25:16;0.90;8.60
1680;DHT22;838;51.794;12.258;2023-02-28T06:27:42;0.80;8.60
1680;DHT22;838;51.794;12.258;2023-02-28T06:30:09;1.00;8.80
1680;DHT22;838;51.794;12.258;2023-02-28T06:32:35;1.20;9.00
1680;DHT22;838;51.794;12.258;2023-02-28T06:35:02;1.30;8.90
1680;DHT22;838;51.794;12.258;2023-02-28T06:37:28;1.60;8.50
1680;DHT22;838;51.794;12.258;2023-02-28T06:39:54;1.80;7.30
1680;DHT22;838;51.794;12.258;2023-02-28T06:42:24;2.00;6.20
1680;DHT22;838;51.794;12.258;2023-02-28T06:44:57;2.00;5.80
1680;DHT22;838;51.794;12.258;2023-02-28T06:47:24;2.30;7.00
1680;DHT22;838;51.794;12.258;2023-02-28T06:49:50;3.00;8.70
1680;DHT22;838;51.794;12.258;2023-02-28T06:52:16;3.70;6.10
1680;DHT22;838;51.794;12.258;2023-02-28T06:54:42;3.90;2.60
1680;DHT22;838;51.794;12.258;2023-02-28T06:57:07;4.00;1.00
1680;DHT22;838;51.794;12.258;2023-02-28T06:59:33;4.00;1.00
1680;DHT22;838;51.794;12.258;2023-02-28T07:02:00;3.80;1.00
1680;DHT22;838;51.794;12.258;2023-02-28T07:04:27;3.70;1.00
1680;DHT22;838;51.794;12.258;2023-02-28T07:06:54;3.60;1.00
1680;DHT22;838;51.794;12.258;2023-02-28T07:09:21;3.60;1.00
1680;DHT22;838;51.794;12.258;2023-02-28T07:11:47;3.50;1.00
1680;DHT22;838;51.794;12.258;2023-02-28T07:14:12;3.40;1.00
1680;DHT22;838;51.794;12.258;2023-02-28T07:16:38;3.30;1.20
1680;DHT22;838;51.794;12.258;2023-02-28T07:19:04;3.30;2.20
1680;DHT22;838;51.794;12.258;2023-02-28T07:21:29;3.30;3.70
1680;DHT22;838;51.794;12.258;2023-02-28T07:23:56;3.50;5.00
1680;DHT22;838;51.794;12.258;2023-02-28T07:26:22;3.50;4.60
1680;DHT22;838;51.794;12.258;2023-02-28T07:28:48;4.30;3.10
1680;DHT22;838;51.794;12.258;2023-02-28T07:31:15;4.90;1.00
1680;DHT22;838;51.794;12.258;2023-02-28T07:33:41;5.00;1.00
1680;DHT22;838;51.794;12.258;2023-02-28T07:36:12;4.70;1.00
1680;DHT22;838;51.794;12.258;2023-02-28T07:38:46;4.80;1.00
1680;DHT22;838;51.794;12.258;2023-02-28T07:41:17;4.80;1.00
1680;DHT22;838;51.794;12.258;2023-02-28T07:43:43;4.90;1.00
1680;DHT22;838;51.794;12.258;2023-02-28T07:46:12;4.90;1.00
1680;DHT22;838;51.794;12.258;2023-02-28T07:48:40;5.10;1.00
1680;DHT22;838;51.794;12.258;2023-02-28T07:51:06;5.80;1.00
1680;DHT22;838;51.794;12.258;2023-02-28T07:53:32;5.90;1.00
1680;DHT22;838;51.794;12.258;2023-02-28T07:55:59;6.50;1.00
1680;DHT22;838;51.794;12.258;2023-02-28T07:58:27;6.40;1.00
1680;DHT22;838;51.794;12.258;2023-02-28T08:00:53;6.20;1.00
1680;DHT22;838;51.794;12.258;2023-02-28T08:03:21;6.70;1.00
1680;DHT22;838;51.794;12.258;2023-02-28T08:05:48;6.80;1.00
1680;DHT22;838;51.794;12.258;2023-02-28T08:08:15;6.40;1.00
1680;DHT22;838;51.794;12.258;2023-02-28T08:10:41;6.40;1.00
1680;DHT22;838;51.794;12.258;2023-02-28T08:13:07;6.20;1.00
1680;DHT22;838;51.794;12.258;2023-02-28T08:15:33;6.70;1.00
1680;DHT22;838;51.794;12.258;2023-02-28T08:17:58;6.70;1.00
1680;DHT22;838;51.794;12.258;2023-02-28T08:20:25;6.30;1.00
1680;DHT22;838;51.794;12.258;2023-02-28T08:22:51;6.20;1.00
1680;DHT22;838;51.794;12.258;2023-02-28T08:25:17;6.10;1.00
1680;DHT22;838;51.794;12.258;2023-02-28T08:27:42;6.10;1.00
1680;DHT22;838;51.794;12.258;2023-02-28T08:30:11;6.20;1.00
1680;DHT22;838;51.794;12.258;2023-02-28T08:32:37;6.20;1.00
1680;DHT22;838;51.794;12.258;2023-02-28T08:35:02;5.80;1.00
1680;DHT22;838;51.794;12.258;2023-02-28T08:37:29;5.60;1.00
1680;DHT22;838;51.794;12.258;2023-02-28T08:39:54;5.50;1.00
1680;DHT22;838;51.794;12.258;2023-02-28T08:42:20;5.30;1.00
1680;DHT22;838;51.794;12.258;2023-02-28T08:44:46;5.30;1.00
1680;DHT22;838;51.794;12.258;2023-02-28T08:47:12;5.70;1.00
1680;DHT22;838;51.794;12.258;2023-02-28T08:49:38;6.30;1.00
1680;DHT22;838;51.794;12.258;2023-02-28T08:52:04;6.10;1.00
1680;DHT22;838;51.794;12.258;2023-02-28T08:54:29;6.10;1.00
1680;DHT22;838;51.794;12.258;2023-02-28T08:56:56;6.50;1.00
1680;DHT22;838;51.794;12.258;2023-02-28T08:59:29;6.80;1.00
1680;DHT22;838;51.794;12.258;2023-02-28T09:01:55;6.80;1.00
1680;DHT22;838;51.794;12.258;2023-02-28T09:04:20;6.50;1.00
1680;DHT22;838;51.794;12.258;2023-02-28T09:06:46;6.40;1.00
1680;DHT22;838;51.794;12.258;2023-02-28T09:09:14;6.70;1.00
1680;DHT22;838;51.794;12.258;2023-02-28T09:11:40;7.10;1.00
1680;DHT22;838;51.794;12.258;2023-02-28T09:14:05;7.80;1.00
1680;DHT22;838;51.794;12.258;2023-02-28T09:16:32;7.90;1.00
1680;DHT22;838;51.794;12.258;2023-02-28T09:18:58;8.50;1.00
1680;DHT22;838;51.794;12.258;2023-02-28T09:21:24;8.80;1.00
1680;DHT22;838;51.794;12.258;2023-02-28T09:23:52;8.10;1.00
1680;DHT22;838;51.794;12.258;2023-02-28T09:28:45;8.00;1.00
1680;DHT22;838;51.794;12.258;2023-02-28T09:31:13;7.90;1.00
1680;DHT22;838;51.794;12.258;2023-02-28T09:33:39;7.20;1.00
1680;DHT22;838;51.794;12.258;2023-02-28T09:36:05;6.70;1.00
1680;DHT22;838;51.794;12.258;2023-02-28T09:38:31;6.50;1.00
1680;DHT22;838;51.794;12.258;2023-02-28T09:41:00;6.40;1.00
1680;DHT22;838;51.794;12.258;2023-02-28T09:43:29;6.20;1.00
1680;DHT22;838;51.794;12.258;2023-02-28T09:48:35;5.20;1.00
1680;DHT22;838;51.794;12.258;2023-02-28T09:51:05;5.20;1.00
1680;DHT22;838;51.794;12.258;2023-02-28T09:53:37;5.30;1.00
1680;DHT22;838;51.794;12.258;2023-02-28T09:56:11;5.20;1.00
1680;DHT22;838;51.794;12.258;2023-02-28T09:58:56;5.40;1.00
1680;DHT22;838;51.794;12.258;2023-02-28T10:06:51;4.90;1.00
1680;DHT22;838;51.794;12.258;2023-02-28T10:11:46;5.00;1.00
1680;DHT22;838;51.794;12.258;2023-02-28T10:14:24;5.00;1.00
1680;DHT22;838;51.794;12.258;2023-02-28T10:16:52;5.00;1.00
1680;DHT22;838;51.794;12.258;2023-02-28T10:19:23;5.20;1.00
1680;DHT22;838;51.794;12.258;2023-02-28T10:21:57;5.40;1.00
1680;DHT22;838;51.794;12.258;2023-02-28T10:24:30;5.50;1.00
1680;DHT22;838;51.794;12.258;2023-02-28T10:27:23;5.50;1.00
1680;DHT22;838;51.794;12.258;2023-02-28T10:29:56;5.30;1.00
1680;DHT22;838;51.794;12.258;2023-02-28T10:32:45;5.20;1.00
1680;DHT22;838;51.794;12.258;2023-02-28T10:35:25;5.20;1.00
1680;DHT22;838;51.794;12.258;2023-02-28T10:37:57;5.30;1.00
1680;DHT22;838;51.794;12.258;2023-02-28T10:45:38;5.30;1.00
1680;DHT22;838;51.794;12.258;2023-02-28T10:59:26;5.20;1.00
1680;DHT22;838;51.794;12.258;2023-02-28T11:03:45;5.50;1.00
1680;DHT22;838;51.794;12.258;2023-02-28T11:06:34;5.60;1.00
1680;DHT22;838;51.794;12.258;2023-02-28T11:09:04;5.50;1.00
1680;DHT22;838;51.794;12.258;2023-02-28T11:14:26;5.50;1.00
1680;DHT22;838;51.794;12.258;2023-02-28T11:16:53;5.60;1.00
1680;DHT22;838;51.794;12.258;2023-02-28T11:19:26;5.50;1.00
1680;DHT22;838;51.794;12.258;2023-02-28T11:21:56;5.60;1.00
1680;DHT22;838;51.794;12.258;2023-02-28T11:24:33;5.50;1.00
1680;DHT22;838;51.794;12.258;2023-02-28T11:27:00;5.50;1.00
1680;DHT22;838;51.794;12.258;2023-02-28T11:29:29;5.40;1.00
1680;DHT22;838;51.794;12.258;2023-02-28T11:32:20;5.50;1.00
1680;DHT22;838;51.794;12.258;2023-02-28T11:35:03;5.40;1.00
1680;DHT22;838;51.794;12.258;2023-02-28T11:37:31;5.60;1.00
1680;DHT22;838;51.794;12.258;2023-02-28T11:39:56;5.80;1.00
1680;DHT22;838;51.794;12.258;2023-02-28T11:42:35;5.80;1.00
1680;DHT22;838;51.794;12.258;2023-02-28T11:48:21;5.70;1.00
1680;DHT22;838;51.794;12.258;2023-02-28T11:56:22;6.10;1.00
1680;DHT22;838;51.794;12.258;2023-02-28T12:05:36;5.90;1.00
1680;DHT22;838;51.794;12.258;2023-02-28T12:19:12;5.90;1.00
1680;DHT22;838;51.794;12.258;2023-02-28T12:24:33;5.90;1.00
1680;DHT22;838;51.794;12.258;2023-02-28T12:27:09;6.00;1.00
1680;DHT22;838;51.794;12.258;2023-02-28T12:29:51;5.90;1.00
1680;DHT22;838;51.794;12.258;2023-02-28T12:32:36;6.10;1.00
1680;DHT22;838;51.794;12.258;2023-02-28T12:35:13;6.20;1.00
1680;DHT22;838;51.794;12.258;2023-02-28T12:37:47;6.10;1.00
1680;DHT22;838;51.794;12.258;2023-02-28T12:40:23;6.00;1.00
1680;DHT22;838;51.794;12.258;2023-02-28T12:43:04;6.10;1.00
1680;DHT22;838;51.794;12.258;2023-02-28T12:48:44;6.10;1.00
1680;DHT22;838;51.794;12.258;2023-02-28T12:51:12;6.20;1.00
1680;DHT22;838;51.794;12.258;2023-02-28T12:53:59;6.20;1.00
1680;DHT22;838;51.794;12.258;2023-02-28T12:59:20;6.40;1.00
1680;DHT22;838;51.794;12.258;2023-02-28T13:05:01;6.20;1.00
1680;DHT22;838;51.794;12.258;2023-02-28T13:10:10;6.20;1.00
1680;DHT22;838;51.794;12.258;2023-02-28T13:12:36;6.20;1.00
1680;DHT22;838;51.794;12.258;2023-02-28T13:15:23;6.20;1.00
1680;DHT22;838;51.794;12.258;2023-02-28T13:17:52;6.20;1.00
1680;DHT22;838;51.794;12.258;2023-02-28T13:20:46;6.40;1.00
1680;DHT22;838;51.794;12.258;2023-02-28T13:23:40;6.60;1.00
1680;DHT22;838;51.794;12.258;2023-02-28T13:26:06;6.60;1.00
1680;DHT22;838;51.794;12.258;2023-02-28T13:39:56;6.40;1.00
1680;DHT22;838;51.794;12.258;2023-02-28T13:45:20;6.70;1.00
1680;DHT22;838;51.794;12.258;2023-02-28T13:47:54;6.60;1.00
1680;DHT22;838;51.794;12.258;2023-02-28T13:50:31;6.50;1.00
1680;DHT22;838;51.794;12.258;2023-02-28T13:59:04;6.10;1.00
1680;DHT22;838;51.794;12.258;2023-02-28T14:01:40;6.10;1.00
1680;DHT22;838;51.794;12.258;2023-02-28T14:04:16;6.30;1.00
1680;DHT22;838;51.794;12.258;2023-02-28T14:06:52;6.40;1.00
1680;DHT22;838;51.794;12.258;2023-02-28T14:09:34;6.50;1.00
1680;DHT22;838;51.794;12.258;2023-02-28T14:15:23;6.20;1.00
1680;DHT22;838;51.794;12.258;2023-02-28T14:17:54;6.20;1.00
1680;DHT22;838;51.794;12.258;2023-02-28T14:20:22;6.30;1.00
1680;DHT22;838;51.794;12.258;2023-02-28T14:25:53;6.30;1.00
1680;DHT22;838;51.794;12.258;2023-02-28T14:33:45;6.20;1.00
1680;DHT22;838;51.794;12.258;2023-02-28T14:36:23;6.20;1.00
1680;DHT22;838;51.794;12.258;2023-02-28T14:38:52;6.30;1.00
1680;DHT22;838;51.794;12.258;2023-02-28T14:41:27;6.30;1.00
1680;DHT22;838;51.794;12.258;2023-02-28T14:44:01;6.10;1.00
1680;DHT22;838;51.794;12.258;2023-02-28T14:46:37;6.10;1.00
1680;DHT22;838;51.794;12.258;2023-02-28T14:49:05;5.70;1.00
1680;DHT22;838;51.794;12.258;2023-02-28T14:51:33;5.70;1.00
1680;DHT22;838;51.794;12.258;2023-02-28T14:54:01;5.70;1.00
1680;DHT22;838;51.794;12.258;2023-02-28T14:56:35;6.10;1.00
1680;DHT22;838;51.794;12.258;2023-02-28T14:59:01;6.10;1.00
1680;DHT22;838;51.794;12.258;2023-02-28T15:01:27;6.20;1.00
1680;DHT22;838;51.794;12.258;2023-02-28T15:04:02;6.20;1.00
1680;DHT22;838;51.794;12.258;2023-02-28T15:06:28;6.40;1.00
1680;DHT22;838;51.794;12.258;2023-02-28T15:09:29;6.60;1.00
1680;DHT22;838;51.794;12.258;2023-02-28T15:11:55;6.30;1.00
1680;DHT22;838;51.794;12.258;2023-02-28T15:14:21;6.40;1.00
1680;DHT22;838;51.794;12.258;2023-02-28T15:16:52;6.60;1.00
1680;DHT22;838;51.794;12.258;2023-02-28T15:19:24;6.20;1.00
1680;DHT22;838;51.794;12.258;2023-02-28T15:22:08;6.20;1.00
1680;DHT22;838;51.794;12.258;2023-02-28T15:27:31;6.10;1.00
1680;DHT22;838;51.794;12.258;2023-02-28T15:30:00;5.90;1.00
1680;DHT22;838;51.794;12.258;2023-02-28T15:34:59;6.00;1.00
1680;DHT22;838;51.794;12.258;2023-02-28T15:42:58;6.10;1.00
1680;DHT22;838;51.794;12.258;2023-02-28T15:45:48;5.80;1.00
1680;DHT22;838;51.794;12.258;2023-02-28T15:48:22;5.50;1.00
1680;DHT22;838;51.794;12.258;2023-02-28T15:50:51;5.50;1.00
1680;DHT22;838;51.794;12.258;2023-02-28T15:53:25;5.60;1.00
1680;DHT22;838;51.794;12.258;2023-02-28T15:56:00;5.50;1.00
1680;DHT22;838;51.794;12.258;2023-02-28T15:58:26;5.60;1.00
1680;DHT22;838;51.794;12.258;2023-02-28T16:01:08;5.50;1.00
1680;DHT22;838;51.794;12.258;2023-02-28T16:03:48;5.50;1.00
1680;DHT22;838;51.794;12.258;2023-02-28T16:06:40;5.50;1.00
1680;DHT22;838;51.794;12.258;2023-02-28T16:09:18;5.50;1.00
1680;DHT22;838;51.794;12.258;2023-02-28T16:11:49;5.90;1.00
1680;DHT22;838;51.794;12.258;2023-02-28T16:14:22;5.70;1.00
1680;DHT22;838;51.794;12.258;2023-02-28T16:16:56;5.50;1.00
1680;DHT22;838;51.794;12.258;2023-02-28T16:19:23;5.30;1.00
1680;DHT22;838;51.794;12.258;2023-02-28T16:21:49;5.20;1.00
1680;DHT22;838;51.794;12.258;2023-02-28T16:24:15;5.20;1.00
1680;DHT22;838;51.794;12.258;2023-02-28T16:26:42;5.30;1.00
1680;DHT22;838;51.794;12.258;2023-02-28T16:29:16;5.40;1.00
1680;DHT22;838;51.794;12.258;2023-02-28T16:31:44;5.40;1.00
1680;DHT22;838;51.794;12.258;2023-02-28T16:34:10;5.40;1.00
1680;DHT22;838;51.794;12.258;2023-02-28T16:36:36;5.20;1.00
1680;DHT22;838;51.794;12.258;2023-02-28T16:39:01;5.20;1.00
1680;DHT22;838;51.794;12.258;2023-02-28T16:41:28;5.40;1.00
1680;DHT22;838;51.794;12.258;2023-02-28T16:43:56;5.50;1.00
1680;DHT22;838;51.794;12.258;2023-02-28T16:46:33;5.90;1.00
1680;DHT22;838;51.794;12.258;2023-02-28T16:48:59;6.10;1.00
1680;DHT22;838;51.794;12.258;2023-02-28T16:51:25;6.20;1.00
1680;DHT22;838;51.794;12.258;2023-02-28T16:53:51;6.20;1.00
1680;DHT22;838;51.794;12.258;2023-02-28T16:56:22;6.10;1.00
1680;DHT22;838;51.794;12.258;2023-02-28T16:58:51;6.20;1.00
1680;DHT22;838;51.794;12.258;2023-02-28T17:01:18;6.10;1.00
1680;DHT22;838;51.794;12.258;2023-02-28T17:03:50;6.10;1.00
1680;DHT22;838;51.794;12.258;2023-02-28T17:06:22;6.10;1.00
1680;DHT22;838;51.794;12.258;2023-02-28T17:08:49;6.00;1.00
1680;DHT22;838;51.794;12.258;2023-02-28T17:11:16;5.90;1.00
1680;DHT22;838;51.794;12.258;2023-02-28T17:13:42;5.90;1.00
1680;DHT22;838;51.794;12.258;2023-02-28T17:16:32;5.90;1.00
1680;DHT22;838;51.794;12.258;2023-02-28T17:19:01;5.80;1.00
1680;DHT22;838;51.794;12.258;2023-02-28T17:21:28;5.70;1.00
1680;DHT22;838;51.794;12.258;2023-02-28T17:23:54;5.60;1.00
1680;DHT22;838;51.794;12.258;2023-02-28T17:26:21;5.40;1.00
1680;DHT22;838;51.794;12.258;2023-02-28T17:28:48;5.40;1.00
1680;DHT22;838;51.794;12.258;2023-02-28T17:31:14;5.20;1.00
1680;DHT22;838;51.794;12.258;2023-02-28T17:33:40;5.00;1.00
1680;DHT22;838;51.794;12.258;2023-02-28T17:36:13;5.00;1.00
1680;DHT22;838;51.794;12.258;2023-02-28T17:38:39;4.90;1.00
1680;DHT22;838;51.794;12.258;2023-02-28T17:41:05;4.80;1.00
1680;DHT22;838;51.794;12.258;2023-02-28T17:43:31;4.80;1.00
1680;DHT22;838;51.794;12.258;2023-02-28T17:45:56;4.70;1.00
1680;DHT22;838;51.794;12.258;2023-02-28T17:48:23;4.60;1.00
1680;DHT22;838;51.794;12.258;2023-02-28T17:50:49;4.50;1.00
1680;DHT22;838;51.794;12.258;2023-02-28T17:53:15;4.40;1.00
1680;DHT22;838;51.794;12.258;2023-02-28T17:55:40;4.20;1.00
1680;DHT22;838;51.794;12.258;2023-02-28T17:58:09;4.20;1.00
1680;DHT22;838;51.794;12.258;2023-02-28T18:00:36;4.10;1.00
1680;DHT22;838;51.794;12.258;2023-02-28T18:03:03;4.10;1.00
1680;DHT22;838;51.794;12.258;2023-02-28T18:05:29;4.00;1.00
1680;DHT22;838;51.794;12.258;2023-02-28T18:07:55;4.00;1.00
1680;DHT22;838;51.794;12.258;2023-02-28T18:10:21;3.80;1.00
1680;DHT22;838;51.794;12.258;2023-02-28T18:12:49;3.50;1.00
1680;DHT22;838;51.794;12.258;2023-02-28T18:15:17;3.20;1.00
1680;DHT22;838;51.794;12.258;2023-02-28T18:17:45;3.40;1.00
1680;DHT22;838;51.794;12.258;2023-02-28T18:20:11;3.30;1.00
1680;DHT22;838;51.794;12.258;2023-02-28T18:22:38;3.30;1.00
1680;DHT22;838;51.794;12.258;2023-02-28T18:25:05;3.40;1.00
1680;DHT22;838;51.794;12.258;2023-02-28T18:27:37;3.50;1.00
1680;DHT22;838;51.794;12.258;2023-02-28T18:30:04;3.50;1.00
1680;DHT22;838;51.794;12.258;2023-02-28T18:32:30;3.30;1.00
1680;DHT22;838;51.794;12.258;2023-02-28T18:34:56;2.80;1.00
1680;DHT22;838;51.794;12.258;2023-02-28T18:37:22;2.70;1.00
1680;DHT22;838;51.794;12.258;2023-02-28T18:39:47;2.90;1.00
1680;DHT22;838;51.794;12.258;2023-02-28T18:42:13;3.00;1.00
1680;DHT22;838;51.794;12.258;2023-02-28T18:44:39;3.00;1.00
1680;DHT22;838;51.794;12.258;2023-02-28T18:47:06;2.90;1.00
1680;DHT22;838;51.794;12.258;2023-02-28T18:49:32;3.00;1.00
1680;DHT22;838;51.794;12.258;2023-02-28T18:52:02;3.00;1.00
1680;DHT22;838;51.794;12.258;2023-02-28T18:54:28;3.00;1.00
1680;DHT22;838;51.794;12.258;2023-02-28T18:56:54;2.80;1.00
1680;DHT22;838;51.794;12.258;2023-02-28T18:59:21;2.70;1.00
1680;DHT22;838;51.794;12.258;2023-02-28T19:01:47;2.70;1.00
1680;DHT22;838;51.794;12.258;2023-02-28T19:04:13;2.70;1.00
1680;DHT22;838;51.794;12.258;2023-02-28T19:06:39;2.70;1.00
1680;DHT22;838;51.794;12.258;2023-02-28T19:09:07;2.70;1.00
1680;DHT22;838;51.794;12.258;2023-02-28T19:11:33;2.60;1.00
1680;DHT22;838;51.794;12.258;2023-02-28T19:13:59;2.50;1.00
1680;DHT22;838;51.794;12.258;2023-02-28T19:16:25;2.50;1.00
1680;DHT22;838;51.794;12.258;2023-02-28T19:18:52;2.50;1.00
1680;DHT22;838;51.794;12.258;2023-02-28T19:21:20;2.50;1.00
1680;DHT22;838;51.794;12.258;2023-02-28T19:23:46;2.50;1.00